sensor_id;sensor_type;location;lat;lon;timestamp;pressure;altitude;pressure_sealevel;temperature;humidity
45937;BME280;31649;46.510;6.498;2022-09-09T00:04:26;97083.22;;;19.06;59.36
45937;BME280;31649;46.510;6.498;2022-09-09T00:09:35;97089.19;;;19.00;59.61
45937;BME280;31649;46.510;6.498;2022-09-09T00:12:15;97086.69;;;18.98;61.21
45937;BME280;31649;46.510;6.498;2022-09-09T00:15:03;97096.72;;;19.03;62.64
45937;BME280;31649;46.510;6.498;2022-09-09T00:20:03;97107.31;;;18.95;64.15
45937;BME280;31649;46.510;6.498;2022-09-09T00:22:32;97103.31;;;18.59;66.79
45937;BME280;31649;46.510;6.498;2022-09-09T00:25:19;97100.72;;;18.33;66.13
45937;BME280;31649;46.510;6.498;2022-09-09T00:27:49;97100.59;;;18.18;69.98
45937;BME280;31649;46.510;6.498;2022-09-09T00:30:18;97090.84;;;18.10;70.48
45937;BME280;31649;46.510;6.498;2022-09-09T00:32:46;97088.19;;;18.02;70.41
45937;BME280;31649;46.510;6.498;2022-09-09T00:37:41;97092.00;;;18.16;70.64
45937;BME280;31649;46.510;6.498;2022-09-09T00:40:23;97096.75;;;18.13;71.24
45937;BME280;31649;46.510;6.498;2022-09-09T00:43:07;97104.66;;;18.04;71.93
45937;BME280;31649;46.510;6.498;2022-09-09T00:46:17;97113.22;;;17.90;74.25
45937;BME280;31649;46.510;6.498;2022-09-09T00:51:36;97110.09;;;17.86;76.28
45937;BME280;31649;46.510;6.498;2022-09-09T00:56:53;97103.47;;;17.57;76.36
45937;BME280;31649;46.510;6.498;2022-09-09T00:59:45;97100.19;;;17.55;77.26
45937;BME280;31649;46.510;6.498;2022-09-09T01:02:18;97096.25;;;17.67;78.19
45937;BME280;31649;46.510;6.498;2022-09-09T01:04:47;97091.00;;;17.67;77.65
45937;BME280;31649;46.510;6.498;2022-09-09T01:07:21;97106.59;;;17.69;76.37
45937;BME280;31649;46.510;6.498;2022-09-09T01:09:58;97105.47;;;17.71;75.94
45937;BME280;31649;46.510;6.498;2022-09-09T01:12:26;97099.06;;;17.66;75.02
45937;BME280;31649;46.510;6.498;2022-09-09T01:22:36;97109.25;;;17.77;76.83
45937;BME280;31649;46.510;6.498;2022-09-09T01:25:21;97104.66;;;17.79;75.12
45937;BME280;31649;46.510;6.498;2022-09-09T01:27:50;97104.81;;;17.78;76.80
45937;BME280;31649;46.510;6.498;2022-09-09T01:30:17;97102.38;;;17.84;76.15
45937;BME280;31649;46.510;6.498;2022-09-09T01:32:46;97096.44;;;17.74;75.62
45937;BME280;31649;46.510;6.498;2022-09-09T01:37:49;97096.25;;;17.75;76.60
45937;BME280;31649;46.510;6.498;2022-09-09T01:40:15;97088.03;;;17.62;76.44
45937;BME280;31649;46.510;6.498;2022-09-09T01:42:40;97097.28;;;17.74;77.11
45937;BME280;31649;46.510;6.498;2022-09-09T01:45:06;97097.28;;;17.74;76.15
45937;BME280;31649;46.510;6.498;2022-09-09T01:47:31;97100.69;;;17.75;74.78
45937;BME280;31649;46.510;6.498;2022-09-09T01:49:58;97106.47;;;17.79;75.54
45937;BME280;31649;46.510;6.498;2022-09-09T01:52:24;97105.97;;;17.75;74.98
45937;BME280;31649;46.510;6.498;2022-09-09T01:54:49;97102.53;;;17.74;74.34
45937;BME280;31649;46.510;6.498;2022-09-09T01:57:23;97104.81;;;17.69;75.83
45937;BME280;31649;46.510;6.498;2022-09-09T02:00:09;97103.50;;;17.73;76.16
45937;BME280;31649;46.510;6.498;2022-09-09T02:02:48;97103.66;;;17.72;73.96
45937;BME280;31649;46.510;6.498;2022-09-09T02:08:03;97103.81;;;17.62;74.39
45937;BME280;31649;46.510;6.498;2022-09-09T02:10:50;97108.09;;;17.63;74.81
45937;BME280;31649;46.510;6.498;2022-09-09T02:13:20;97102.00;;;17.62;75.89
45937;BME280;31649;46.510;6.498;2022-09-09T02:18:40;97102.50;;;17.58;75.61
45937;BME280;31649;46.510;6.498;2022-09-09T02:21:07;97093.78;;;17.57;75.13
45937;BME280;31649;46.510;6.498;2022-09-09T02:23:37;97090.50;;;17.72;75.22
45937;BME280;31649;46.510;6.498;2022-09-09T02:26:05;97088.38;;;17.67;74.75
45937;BME280;31649;46.510;6.498;2022-09-09T02:28:34;97086.09;;;17.72;75.65
45937;BME280;31649;46.510;6.498;2022-09-09T02:31:00;97081.94;;;17.61;75.59
45937;BME280;31649;46.510;6.498;2022-09-09T02:33:28;97077.00;;;17.67;76.30
45937;BME280;31649;46.510;6.498;2022-09-09T02:35:56;97094.47;;;17.76;75.43
45937;BME280;31649;46.510;6.498;2022-09-09T02:38:28;97083.47;;;17.89;74.72
45937;BME280;31649;46.510;6.498;2022-09-09T02:40:54;97080.66;;;17.91;75.72
45937;BME280;31649;46.510;6.498;2022-09-09T02:43:20;97085.75;;;17.84;75.29
45937;BME280;31649;46.510;6.498;2022-09-09T02:46:01;97083.28;;;17.91;75.03
45937;BME280;31649;46.510;6.498;2022-09-09T02:51:18;97086.41;;;17.86;74.84
45937;BME280;31649;46.510;6.498;2022-09-09T02:53:59;97077.53;;;17.87;75.04
45937;BME280;31649;46.510;6.498;2022-09-09T02:56:31;97071.94;;;17.82;74.67
45937;BME280;31649;46.510;6.498;2022-09-09T02:58:59;97072.75;;;17.82;74.77
45937;BME280;31649;46.510;6.498;2022-09-09T03:01:24;97081.13;;;17.78;74.96
45937;BME280;31649;46.510;6.498;2022-09-09T03:03:50;97080.97;;;17.79;74.96
45937;BME280;31649;46.510;6.498;2022-09-09T03:06:15;97067.00;;;17.79;74.42
45937;BME280;31649;46.510;6.498;2022-09-09T03:08:41;97073.25;;;17.86;74.77
45937;BME280;31649;46.510;6.498;2022-09-09T03:11:07;97070.28;;;17.81;74.10
45937;BME280;31649;46.510;6.498;2022-09-09T03:13:32;97077.00;;;17.67;74.26
45937;BME280;31649;46.510;6.498;2022-09-09T03:15:58;97080.47;;;17.67;73.91
45937;BME280;31649;46.510;6.498;2022-09-09T03:18:25;97081.47;;;17.74;73.95
45937;BME280;31649;46.510;6.498;2022-09-09T03:20:50;97078.50;;;17.78;73.67
45937;BME280;31649;46.510;6.498;2022-09-09T03:23:16;97077.84;;;17.75;72.85
45937;BME280;31649;46.510;6.498;2022-09-09T03:25:49;97078.00;;;17.66;71.89
45937;BME280;31649;46.510;6.498;2022-09-09T03:28:14;97080.81;;;17.72;72.61
45937;BME280;31649;46.510;6.498;2022-09-09T03:30:40;97074.72;;;17.63;72.99
45937;BME280;31649;46.510;6.498;2022-09-09T03:33:05;97081.47;;;17.58;72.42
45937;BME280;31649;46.510;6.498;2022-09-09T03:35:31;97082.13;;;17.60;73.11
45937;BME280;31649;46.510;6.498;2022-09-09T03:37:56;97074.06;;;17.61;71.61
45937;BME280;31649;46.510;6.498;2022-09-09T03:40:22;97082.78;;;17.70;72.30
45937;BME280;31649;46.510;6.498;2022-09-09T03:42:47;97084.09;;;17.58;71.72
45937;BME280;31649;46.510;6.498;2022-09-09T03:45:14;97076.19;;;17.49;72.25
45937;BME280;31649;46.510;6.498;2022-09-09T03:47:39;97081.44;;;17.49;72.30
45937;BME280;31649;46.510;6.498;2022-09-09T03:50:07;97077.66;;;17.60;72.85
45937;BME280;31649;46.510;6.498;2022-09-09T03:52:36;97068.97;;;17.60;72.72
45937;BME280;31649;46.510;6.498;2022-09-09T03:55:01;97069.94;;;17.50;72.58
45937;BME280;31649;46.510;6.498;2022-09-09T03:57:27;97065.03;;;17.56;72.32
45937;BME280;31649;46.510;6.498;2022-09-09T03:59:52;97072.56;;;17.50;73.15
45937;BME280;31649;46.510;6.498;2022-09-09T04:02:17;97068.44;;;17.56;72.93
45937;BME280;31649;46.510;6.498;2022-09-09T04:04:43;97063.84;;;17.50;73.19
45937;BME280;31649;46.510;6.498;2022-09-09T04:07:08;97069.94;;;17.50;73.40
45937;BME280;31649;46.510;6.498;2022-09-09T04:09:33;97066.16;;;17.45;72.63
45937;BME280;31649;46.510;6.498;2022-09-09T04:12:00;97065.50;;;17.51;72.81
45937;BME280;31649;46.510;6.498;2022-09-09T04:14:25;97064.69;;;17.59;72.75
45937;BME280;31649;46.510;6.498;2022-09-09T04:16:54;97064.66;;;17.50;71.98
45937;BME280;31649;46.510;6.498;2022-09-09T04:19:19;97064.34;;;17.54;72.87
45937;BME280;31649;46.510;6.498;2022-09-09T04:21:44;97059.56;;;17.49;72.35
45937;BME280;31649;46.510;6.498;2022-09-09T04:24:10;97063.03;;;17.41;71.98
45937;BME280;31649;46.510;6.498;2022-09-09T04:26:36;97051.16;;;17.28;72.87
45937;BME280;31649;46.510;6.498;2022-09-09T04:29:02;97052.28;;;17.17;72.16
45937;BME280;31649;46.510;6.498;2022-09-09T04:31:28;97058.97;;;17.12;72.75
45937;BME280;31649;46.510;6.498;2022-09-09T04:33:54;97055.69;;;17.10;72.51
45937;BME280;31649;46.510;6.498;2022-09-09T04:36:20;97051.91;;;17.12;73.43
45937;BME280;31649;46.510;6.498;2022-09-09T04:38:46;97049.81;;;17.16;73.18
45937;BME280;31649;46.510;6.498;2022-09-09T04:41:12;97051.16;;;17.20;73.16
45937;BME280;31649;46.510;6.498;2022-09-09T04:43:38;97050.78;;;17.15;72.21
45937;BME280;31649;46.510;6.498;2022-09-09T04:46:04;97056.81;;;17.07;72.08
45937;BME280;31649;46.510;6.498;2022-09-09T04:48:30;97058.59;;;16.98;73.40
45937;BME280;31649;46.510;6.498;2022-09-09T04:51:02;97058.28;;;16.93;74.13
45937;BME280;31649;46.510;6.498;2022-09-09T04:53:29;97060.38;;;16.89;73.36
45937;BME280;31649;46.510;6.498;2022-09-09T04:56:05;97067.78;;;16.94;74.35
45937;BME280;31649;46.510;6.498;2022-09-09T04:58:31;97064.66;;;16.90;73.79
45937;BME280;31649;46.510;6.498;2022-09-09T05:01:08;97071.00;;;16.79;73.76
45937;BME280;31649;46.510;6.498;2022-09-09T05:03:34;97060.16;;;16.74;74.39
45937;BME280;31649;46.510;6.498;2022-09-09T05:06:10;97064.88;;;16.70;73.99
45937;BME280;31649;46.510;6.498;2022-09-09T05:08:36;97069.84;;;16.74;74.47
45937;BME280;31649;46.510;6.498;2022-09-09T05:11:03;97065.38;;;16.66;73.53
45937;BME280;31649;46.510;6.498;2022-09-09T05:13:28;97069.97;;;16.64;73.79
45937;BME280;31649;46.510;6.498;2022-09-09T05:15:54;97071.31;;;16.68;74.08
45937;BME280;31649;46.510;6.498;2022-09-09T05:18:20;97067.88;;;16.76;73.61
45937;BME280;31649;46.510;6.498;2022-09-09T05:20:48;97069.38;;;16.78;73.52
45937;BME280;31649;46.510;6.498;2022-09-09T05:23:13;97067.38;;;16.72;73.69
45937;BME280;31649;46.510;6.498;2022-09-09T05:25:39;97065.72;;;16.71;73.80
45937;BME280;31649;46.510;6.498;2022-09-09T05:28:05;97074.75;;;16.77;74.31
45937;BME280;31649;46.510;6.498;2022-09-09T05:30:32;97073.13;;;16.76;73.94
45937;BME280;31649;46.510;6.498;2022-09-09T05:32:57;97064.88;;;16.70;74.06
45937;BME280;31649;46.510;6.498;2022-09-09T05:35:23;97060.16;;;16.74;73.98
45937;BME280;31649;46.510;6.498;2022-09-09T05:37:48;97064.75;;;16.72;74.16
45937;BME280;31649;46.510;6.498;2022-09-09T05:40:14;97078.03;;;16.70;74.54
45937;BME280;31649;46.510;6.498;2022-09-09T05:42:40;97073.88;;;16.59;75.27
45937;BME280;31649;46.510;6.498;2022-09-09T05:45:07;97079.66;;;16.63;74.69
45937;BME280;31649;46.510;6.498;2022-09-09T05:47:33;97079.94;;;16.60;74.80
45937;BME280;31649;46.510;6.498;2022-09-09T05:49:58;97092.16;;;16.69;73.92
45937;BME280;31649;46.510;6.498;2022-09-09T05:52:23;97089.38;;;16.71;74.25
45937;BME280;31649;46.510;6.498;2022-09-09T05:54:50;97099.03;;;16.70;73.79
45937;BME280;31649;46.510;6.498;2022-09-09T05:57:16;97097.75;;;16.75;74.22
45937;BME280;31649;46.510;6.498;2022-09-09T05:59:41;97093.38;;;16.83;73.93
45937;BME280;31649;46.510;6.498;2022-09-09T06:02:08;97103.03;;;16.83;74.28
45937;BME280;31649;46.510;6.498;2022-09-09T06:04:34;97095.50;;;16.80;73.56
45937;BME280;31649;46.510;6.498;2022-09-09T06:06:59;97095.50;;;16.80;74.13
45937;BME280;31649;46.510;6.498;2022-09-09T06:09:25;97096.31;;;16.80;74.51
45937;BME280;31649;46.510;6.498;2022-09-09T06:11:50;97106.97;;;16.79;75.24
45937;BME280;31649;46.510;6.498;2022-09-09T06:14:15;97105.16;;;16.79;74.96
45937;BME280;31649;46.510;6.498;2022-09-09T06:16:43;97102.34;;;16.73;75.17
45937;BME280;31649;46.510;6.498;2022-09-09T06:19:09;97102.97;;;16.66;75.37
45937;BME280;31649;46.510;6.498;2022-09-09T06:21:36;97103.50;;;16.70;75.35
45937;BME280;31649;46.510;6.498;2022-09-09T06:24:02;97099.72;;;16.73;74.82
45937;BME280;31649;46.510;6.498;2022-09-09T06:26:33;97104.25;;;16.62;75.18
45937;BME280;31649;46.510;6.498;2022-09-09T06:28:59;97112.00;;;16.64;74.82
45937;BME280;31649;46.510;6.498;2022-09-09T06:31:27;97105.41;;;16.59;73.91
45937;BME280;31649;46.510;6.498;2022-09-09T06:33:56;97100.78;;;16.53;74.66
45937;BME280;31649;46.510;6.498;2022-09-09T06:36:22;97107.38;;;16.57;74.72
45937;BME280;31649;46.510;6.498;2022-09-09T06:38:48;97107.09;;;16.69;75.42
45937;BME280;31649;46.510;6.498;2022-09-09T06:41:16;97114.03;;;16.78;74.49
45937;BME280;31649;46.510;6.498;2022-09-09T06:43:42;97123.59;;;16.88;73.84
45937;BME280;31649;46.510;6.498;2022-09-09T06:46:12;97123.81;;;16.94;73.89
45937;BME280;31649;46.510;6.498;2022-09-09T06:48:39;97116.13;;;17.01;73.46
45937;BME280;31649;46.510;6.498;2022-09-09T06:51:11;97127.88;;;17.15;72.98
45937;BME280;31649;46.510;6.498;2022-09-09T06:53:37;97119.81;;;17.17;72.15
45937;BME280;31649;46.510;6.498;2022-09-09T06:58:34;97121.53;;;17.35;71.13
45937;BME280;31649;46.510;6.498;2022-09-09T07:01:06;97130.91;;;17.46;71.90
45937;BME280;31649;46.510;6.498;2022-09-09T07:03:32;97124.53;;;17.57;71.33
45937;BME280;31649;46.510;6.498;2022-09-09T07:05:58;97130.13;;;17.54;70.87
45937;BME280;31649;46.510;6.498;2022-09-09T07:08:24;97123.38;;;17.51;71.64
45937;BME280;31649;46.510;6.498;2022-09-09T07:10:51;97116.59;;;17.40;71.70
45937;BME280;31649;46.510;6.498;2022-09-09T07:13:25;97118.41;;;17.39;71.73
45937;BME280;31649;46.510;6.498;2022-09-09T07:15:52;97115.66;;;17.49;72.73
45937;BME280;31649;46.510;6.498;2022-09-09T07:18:19;97114.31;;;17.45;73.17
45937;BME280;31649;46.510;6.498;2022-09-09T07:20:53;97118.44;;;17.56;72.96
45937;BME280;31649;46.510;6.498;2022-09-09T07:23:18;97124.03;;;17.61;71.96
45937;BME280;31649;46.510;6.498;2022-09-09T07:25:46;97123.06;;;17.71;71.59
45937;BME280;31649;46.510;6.498;2022-09-09T07:28:13;97137.72;;;17.73;71.73
45937;BME280;31649;46.510;6.498;2022-09-09T07:30:38;97130.66;;;17.74;71.84
45937;BME280;31649;46.510;6.498;2022-09-09T07:33:05;97135.72;;;17.67;71.96
45937;BME280;31649;46.510;6.498;2022-09-09T07:35:30;97141.97;;;17.58;72.54
45937;BME280;31649;46.510;6.498;2022-09-09T07:37:56;97144.91;;;17.55;72.73
45937;BME280;31649;46.510;6.498;2022-09-09T07:40:23;97145.25;;;17.60;72.98
45937;BME280;31649;46.510;6.498;2022-09-09T07:42:48;97139.66;;;17.55;71.95
45937;BME280;31649;46.510;6.498;2022-09-09T07:45:13;97147.56;;;17.63;72.45
45937;BME280;31649;46.510;6.498;2022-09-09T07:47:39;97151.19;;;17.70;72.64
45937;BME280;31649;46.510;6.498;2022-09-09T07:50:06;97142.31;;;17.71;71.86
45937;BME280;31649;46.510;6.498;2022-09-09T07:52:33;97146.59;;;17.64;72.57
45937;BME280;31649;46.510;6.498;2022-09-09T07:54:58;97147.75;;;17.70;71.50
45937;BME280;31649;46.510;6.498;2022-09-09T07:57:25;97150.03;;;17.64;71.93
45937;BME280;31649;46.510;6.498;2022-09-09T07:59:50;97154.16;;;17.75;71.95
45937;BME280;31649;46.510;6.498;2022-09-09T08:02:15;97158.13;;;17.80;72.21
45937;BME280;31649;46.510;6.498;2022-09-09T08:04:41;97146.44;;;17.82;72.14
45937;BME280;31649;46.510;6.498;2022-09-09T08:07:06;97155.50;;;17.88;71.01
45937;BME280;31649;46.510;6.498;2022-09-09T08:09:31;97158.31;;;18.03;70.70
45937;BME280;31649;46.510;6.498;2022-09-09T08:11:58;97158.13;;;18.05;68.58
45937;BME280;31649;46.510;6.498;2022-09-09T08:14:24;97155.84;;;18.10;68.14
45937;BME280;31649;46.510;6.498;2022-09-09T08:16:50;97158.97;;;18.14;67.19
45937;BME280;31649;46.510;6.498;2022-09-09T08:19:16;97157.19;;;18.23;64.02
45937;BME280;31649;46.510;6.498;2022-09-09T08:21:42;97168.88;;;18.37;64.26
45937;BME280;31649;46.510;6.498;2022-09-09T08:24:09;97160.63;;;18.40;59.38
45937;BME280;31649;46.510;6.498;2022-09-09T08:26:38;97155.03;;;18.51;59.45
45937;BME280;31649;46.510;6.498;2022-09-09T08:29:05;97169.69;;;18.54;60.59
45937;BME280;31649;46.510;6.498;2022-09-09T08:31:38;97164.06;;;18.65;58.33
45937;BME280;31649;46.510;6.498;2022-09-09T08:34:05;97172.97;;;18.73;62.06
45937;BME280;31649;46.510;6.498;2022-09-09T08:36:34;97165.03;;;18.81;61.47
45937;BME280;31649;46.510;6.498;2022-09-09T08:39:00;97171.63;;;18.85;59.28
45937;BME280;31649;46.510;6.498;2022-09-09T08:49:36;97171.78;;;18.75;58.25
45937;BME280;31649;46.510;6.498;2022-09-09T08:52:12;97179.66;;;18.84;58.47
45937;BME280;31649;46.510;6.498;2022-09-09T08:54:38;97171.41;;;18.95;58.93
45937;BME280;31649;46.510;6.498;2022-09-09T08:57:12;97185.06;;;19.07;59.02
45937;BME280;31649;46.510;6.498;2022-09-09T08:59:39;97177.28;;;19.22;57.96
45937;BME280;31649;46.510;6.498;2022-09-09T09:07:21;97188.88;;;19.53;56.21
45937;BME280;31649;46.510;6.498;2022-09-09T09:09:58;97187.44;;;19.74;57.10
45937;BME280;31649;46.510;6.498;2022-09-09T09:12:31;97183.16;;;19.73;58.23
45937;BME280;31649;46.510;6.498;2022-09-09T09:15:00;97178.59;;;19.90;57.90
45937;BME280;31649;46.510;6.498;2022-09-09T09:17:28;97174.38;;;20.04;57.59
45937;BME280;31649;46.510;6.498;2022-09-09T09:19:56;97183.75;;;19.83;55.52
45937;BME280;31649;46.510;6.498;2022-09-09T09:22:32;97170.44;;;19.77;53.66
45937;BME280;31649;46.510;6.498;2022-09-09T09:28:00;97184.19;;;19.95;54.14
45937;BME280;31649;46.510;6.498;2022-09-09T09:30:40;97186.63;;;19.97;53.30
45937;BME280;31649;46.510;6.498;2022-09-09T09:33:27;97180.25;;;19.91;53.63
45937;BME280;31649;46.510;6.498;2022-09-09T09:35:54;97180.81;;;19.78;56.95
45937;BME280;31649;46.510;6.498;2022-09-09T09:38:24;97175.72;;;19.77;57.17
45937;BME280;31649;46.510;6.498;2022-09-09T09:40:52;97174.06;;;19.99;56.25
45937;BME280;31649;46.510;6.498;2022-09-09T09:43:24;97178.56;;;20.22;54.23
45937;BME280;31649;46.510;6.498;2022-09-09T09:45:51;97180.63;;;20.35;52.23
45937;BME280;31649;46.510;6.498;2022-09-09T09:48:16;97188.94;;;20.47;51.37
45937;BME280;31649;46.510;6.498;2022-09-09T09:50:54;97187.22;;;20.55;50.86
45937;BME280;31649;46.510;6.498;2022-09-09T09:55:57;97178.09;;;20.57;51.53
45937;BME280;31649;46.510;6.498;2022-09-09T09:58:23;97180.50;;;20.67;51.84
45937;BME280;31649;46.510;6.498;2022-09-09T10:00:51;97173.47;;;20.74;48.56
45937;BME280;31649;46.510;6.498;2022-09-09T10:03:32;97178.53;;;20.99;49.54
45937;BME280;31649;46.510;6.498;2022-09-09T10:06:02;97178.63;;;21.06;47.81
45937;BME280;31649;46.510;6.498;2022-09-09T10:08:28;97190.59;;;21.02;48.30
45937;BME280;31649;46.510;6.498;2022-09-09T10:11:12;97192.31;;;21.10;49.78
45937;BME280;31649;46.510;6.498;2022-09-09T10:14:06;97184.91;;;21.20;48.99
45937;BME280;31649;46.510;6.498;2022-09-09T10:19:34;97180.00;;;21.17;49.36
45937;BME280;31649;46.510;6.498;2022-09-09T10:22:07;97181.44;;;21.20;48.14
45937;BME280;31649;46.510;6.498;2022-09-09T10:30:17;97177.81;;;21.21;47.52
45937;BME280;31649;46.510;6.498;2022-09-09T10:33:02;97176.16;;;21.20;45.24
45937;BME280;31649;46.510;6.498;2022-09-09T10:35:51;97174.03;;;21.30;47.25
45937;BME280;31649;46.510;6.498;2022-09-09T10:41:12;97171.50;;;21.22;45.49
45937;BME280;31649;46.510;6.498;2022-09-09T10:43:56;97160.81;;;21.30;44.77
45937;BME280;31649;46.510;6.498;2022-09-09T10:54:57;97167.66;;;21.40;43.85
45937;BME280;31649;46.510;6.498;2022-09-09T10:57:33;97173.25;;;21.67;44.73
45937;BME280;31649;46.510;6.498;2022-09-09T11:00:06;97163.91;;;21.86;43.17
45937;BME280;31649;46.510;6.498;2022-09-09T11:02:40;97177.59;;;21.75;40.19
45937;BME280;31649;46.510;6.498;2022-09-09T11:05:16;97171.03;;;21.71;41.48
45937;BME280;31649;46.510;6.498;2022-09-09T11:10:24;97178.00;;;21.72;43.02
45937;BME280;31649;46.510;6.498;2022-09-09T11:12:59;97167.91;;;21.82;43.43
45937;BME280;31649;46.510;6.498;2022-09-09T11:15:41;97172.25;;;22.05;43.67
45937;BME280;31649;46.510;6.498;2022-09-09T11:18:13;97165.53;;;21.87;42.23
45937;BME280;31649;46.510;6.498;2022-09-09T11:20:42;97182.53;;;21.78;41.64
45937;BME280;31649;46.510;6.498;2022-09-09T11:23:17;97165.19;;;21.90;43.05
45937;BME280;31649;46.510;6.498;2022-09-09T11:25:54;97163.41;;;21.98;41.08
45937;BME280;31649;46.510;6.498;2022-09-09T11:28:37;97159.00;;;22.05;42.31
45937;BME280;31649;46.510;6.498;2022-09-09T11:34:19;97165.53;;;22.31;40.85
45937;BME280;31649;46.510;6.498;2022-09-09T11:42:18;97167.50;;;22.73;39.52
45937;BME280;31649;46.510;6.498;2022-09-09T11:44:43;97177.69;;;22.47;39.60
45937;BME280;31649;46.510;6.498;2022-09-09T11:47:24;97191.72;;;22.19;40.50
45937;BME280;31649;46.510;6.498;2022-09-09T11:49:54;97181.38;;;22.02;41.75
45937;BME280;31649;46.510;6.498;2022-09-09T11:52:40;97177.03;;;21.95;40.28
45937;BME280;31649;46.510;6.498;2022-09-09T11:55:24;97185.09;;;21.86;41.47
45937;BME280;31649;46.510;6.498;2022-09-09T11:58:00;97182.34;;;21.95;41.66
45937;BME280;31649;46.510;6.498;2022-09-09T12:02:58;97177.97;;;21.87;42.40
45937;BME280;31649;46.510;6.498;2022-09-09T12:05:34;97183.72;;;21.75;41.35
45937;BME280;31649;46.510;6.498;2022-09-09T12:08:02;97179.59;;;21.51;42.22
45937;BME280;31649;46.510;6.498;2022-09-09T12:10:37;97184.78;;;21.59;43.64
45937;BME280;31649;46.510;6.498;2022-09-09T12:13:21;97179.41;;;21.52;42.49
45937;BME280;31649;46.510;6.498;2022-09-09T12:15:53;97177.84;;;21.43;41.60
45937;BME280;31649;46.510;6.498;2022-09-09T12:18:38;97177.78;;;21.88;40.38
45937;BME280;31649;46.510;6.498;2022-09-09T12:23:49;97177.38;;;23.22;37.62
45937;BME280;31649;46.510;6.498;2022-09-09T12:28:54;97179.47;;;23.96;38.06
45937;BME280;31649;46.510;6.498;2022-09-09T12:36:58;97178.53;;;22.77;37.74
45937;BME280;31649;46.510;6.498;2022-09-09T12:39:34;97183.47;;;22.29;38.74
45937;BME280;31649;46.510;6.498;2022-09-09T12:42:03;97182.00;;;22.26;38.15
45937;BME280;31649;46.510;6.498;2022-09-09T12:44:29;97179.41;;;22.33;38.08
45937;BME280;31649;46.510;6.498;2022-09-09T12:46:55;97188.53;;;22.24;38.33
45937;BME280;31649;46.510;6.498;2022-09-09T12:49:24;97179.69;;;21.95;38.74
45937;BME280;31649;46.510;6.498;2022-09-09T12:51:51;97176.69;;;22.48;36.75
45937;BME280;31649;46.510;6.498;2022-09-09T12:54:17;97174.00;;;22.20;37.29
45937;BME280;31649;46.510;6.498;2022-09-09T12:56:46;97174.41;;;21.79;37.88
45937;BME280;31649;46.510;6.498;2022-09-09T12:59:24;97167.00;;;21.53;38.33
45937;BME280;31649;46.510;6.498;2022-09-09T13:01:59;97160.72;;;21.39;38.17
45937;BME280;31649;46.510;6.498;2022-09-09T13:04:25;97156.84;;;21.56;39.46
45937;BME280;31649;46.510;6.498;2022-09-09T13:06:50;97155.53;;;22.05;38.38
45937;BME280;31649;46.510;6.498;2022-09-09T13:09:17;97162.22;;;22.51;37.20
45937;BME280;31649;46.510;6.498;2022-09-09T13:11:48;97149.78;;;22.23;37.14
45937;BME280;31649;46.510;6.498;2022-09-09T13:14:26;97151.00;;;21.98;37.83
45937;BME280;31649;46.510;6.498;2022-09-09T13:16:55;97159.72;;;22.43;37.47
45937;BME280;31649;46.510;6.498;2022-09-09T13:19:21;97152.06;;;22.26;37.92
45937;BME280;31649;46.510;6.498;2022-09-09T13:21:47;97142.16;;;22.99;37.11
45937;BME280;31649;46.510;6.498;2022-09-09T13:24:42;97141.19;;;23.63;37.15
45937;BME280;31649;46.510;6.498;2022-09-09T13:27:26;97138.19;;;23.93;36.32
45937;BME280;31649;46.510;6.498;2022-09-09T13:29:54;97132.09;;;24.27;36.92
45937;BME280;31649;46.510;6.498;2022-09-09T13:32:24;97138.56;;;24.85;35.83
45937;BME280;31649;46.510;6.498;2022-09-09T13:34:53;97140.06;;;24.54;35.42
45937;BME280;31649;46.510;6.498;2022-09-09T13:39:56;97139.59;;;24.84;34.84
45937;BME280;31649;46.510;6.498;2022-09-09T13:42:29;97125.91;;;24.67;34.50
45937;BME280;31649;46.510;6.498;2022-09-09T13:44:58;97125.56;;;24.22;36.23
45937;BME280;31649;46.510;6.498;2022-09-09T13:47:32;97129.22;;;24.62;36.20
45937;BME280;31649;46.510;6.498;2022-09-09T13:49:58;97118.13;;;24.79;35.74
45937;BME280;31649;46.510;6.498;2022-09-09T13:52:30;97113.53;;;25.07;34.39
45937;BME280;31649;46.510;6.498;2022-09-09T13:54:56;97117.03;;;25.07;34.29
45937;BME280;31649;46.510;6.498;2022-09-09T13:57:24;97111.72;;;25.00;35.57
45937;BME280;31649;46.510;6.498;2022-09-09T13:59:51;97119.28;;;25.03;36.49
45937;BME280;31649;46.510;6.498;2022-09-09T14:02:17;97113.22;;;24.69;35.58
45937;BME280;31649;46.510;6.498;2022-09-09T14:04:43;97111.63;;;24.20;37.39
45937;BME280;31649;46.510;6.498;2022-09-09T14:07:11;97110.56;;;23.67;38.93
45937;BME280;31649;46.510;6.498;2022-09-09T14:09:38;97111.25;;;24.37;38.78
45937;BME280;31649;46.510;6.498;2022-09-09T14:12:04;97110.75;;;24.74;36.61
45937;BME280;31649;46.510;6.498;2022-09-09T14:14:29;97113.38;;;25.01;35.30
45937;BME280;31649;46.510;6.498;2022-09-09T14:16:55;97120.75;;;25.45;34.48
45937;BME280;31649;46.510;6.498;2022-09-09T14:19:20;97124.41;;;25.51;34.57
45937;BME280;31649;46.510;6.498;2022-09-09T14:21:45;97110.53;;;24.83;35.59
45937;BME280;31649;46.510;6.498;2022-09-09T14:24:10;97116.16;;;24.27;38.33
45937;BME280;31649;46.510;6.498;2022-09-09T14:26:37;97101.50;;;24.97;36.27
45937;BME280;31649;46.510;6.498;2022-09-09T14:29:03;97109.16;;;25.26;35.23
45937;BME280;31649;46.510;6.498;2022-09-09T14:31:28;97104.47;;;25.21;34.76
45937;BME280;31649;46.510;6.498;2022-09-09T14:33:54;97105.25;;;25.29;34.44
45937;BME280;31649;46.510;6.498;2022-09-09T14:36:19;97102.63;;;24.21;35.16
45937;BME280;31649;46.510;6.498;2022-09-09T14:38:45;97115.34;;;23.36;36.54
45937;BME280;31649;46.510;6.498;2022-09-09T14:41:12;97110.88;;;22.88;36.53
45937;BME280;31649;46.510;6.498;2022-09-09T14:43:38;97105.59;;;22.59;36.90
45937;BME280;31649;46.510;6.498;2022-09-09T14:46:05;97109.34;;;22.43;39.39
45937;BME280;31649;46.510;6.498;2022-09-09T14:48:31;97136.88;;;22.42;38.63
45937;BME280;31649;46.510;6.498;2022-09-09T14:50:57;97118.25;;;22.35;39.06
45937;BME280;31649;46.510;6.498;2022-09-09T14:53:22;97123.13;;;22.31;39.73
45937;BME280;31649;46.510;6.498;2022-09-09T14:55:47;97129.63;;;22.29;40.24